Time;durP1;ratioP1;P1;durP2;ratioP2;P2;SDS_P1;SDS_P2;PMS_P1;PMS_P2;Temp;Humidity;BMP_temperature;BMP_pressure;BME280_temperature;BME280_humidity;BME280_pressure;Samples;Min_cycle;Max_cycle;Signal;HPM_P1;HPM_P2
2023/06/26 00:00:47;;;;;;;8.02;5.97;;;;;;;;;;6186040;28;20129;-81
2023/06/26 00:03:48;;;;;;;7.88;6.07;;;;;;;;;;6203293;28;20048;-82
2023/06/26 00:06:50;;;;;;;7.65;6.35;;;;;;;;;;6206052;28;20053;-82
2023/06/26 00:09:52;;;;;;;8.05;6.60;;;;;;;;;;6186657;28;20049;-81
2023/06/26 00:12:54;;;;;;;7.18;6.30;;;;;;;;;;6201345;28;20053;-82
2023/06/26 00:15:56;;;;;;;8.93;6.47;;;;;;;;;;6201031;28;20519;-82
2023/06/26 00:18:58;;;;;;;8.05;6.03;;;;;;;;;;6171082;28;20154;-82
2023/06/26 00:22:00;;;;;;;7.55;6.15;;;;;;;;;;6173158;28;20435;-82
2023/06/26 00:25:02;;;;;;;7.72;6.05;;;;;;;;;;6200503;28;20409;-82
2023/06/26 00:28:04;;;;;;;7.82;6.40;;;;;;;;;;6205569;28;20145;-82
2023/06/26 00:31:05;;;;;;;7.22;5.53;;;;;;;;;;6190207;28;20058;-82
2023/06/26 00:34:07;;;;;;;8.25;5.85;;;;;;;;;;6190933;28;20576;-82
2023/06/26 00:37:09;;;;;;;8.40;6.35;;;;;;;;;;6183186;28;20355;-82
2023/06/26 00:40:12;;;;;;;9.65;6.70;;;;;;;;;;6188686;28;20131;-82
2023/06/26 00:43:14;;;;;;;8.10;6.65;;;;;;;;;;6187684;28;20745;-81
2023/06/26 00:46:16;;;;;;;9.43;7.00;;;;;;;;;;6183714;28;20050;-81
2023/06/26 00:49:18;;;;;;;11.35;6.88;;;;;;;;;;6201333;28;20069;-82
2023/06/26 00:52:20;;;;;;;10.03;6.80;;;;;;;;;;6199642;28;20041;-82
2023/06/26 00:55:21;;;;;;;9.20;6.80;;;;;;;;;;6190292;28;20111;-81
2023/06/26 00:58:24;;;;;;;9.27;6.72;;;;;;;;;;6206356;28;20050;-82
2023/06/26 01:01:26;;;;;;;7.97;6.47;;;;;;;;;;6184909;28;20053;-81
2023/06/26 01:04:32;;;;;;;9.50;7.00;;;;;;;;;;6209224;28;20145;-81
2023/06/26 01:07:36;;;;;;;9.60;6.15;;;;;;;;;;6196667;28;20050;-80
2023/06/26 01:10:37;;;;;;;8.30;5.65;;;;;;;;;;6184475;28;20057;-81
2023/06/26 01:13:41;;;;;;;7.97;6.20;;;;;;;;;;6189393;28;20531;-81
2023/06/26 01:16:47;;;;;;;7.82;6.35;;;;;;;;;;6186020;28;20681;-82
2023/06/26 01:19:50;;;;;;;8.18;6.70;;;;;;;;;;6184696;28;20053;-81
2023/06/26 01:23:36;;;;;;;7.10;6.07;;;;;;;;;;6173993;28;20054;-81
2023/06/26 01:26:41;;;;;;;9.13;7.07;;;;;;;;;;6156329;28;20186;-81
2023/06/26 01:29:44;;;;;;;7.68;6.20;;;;;;;;;;6213520;28;20062;-80
2023/06/26 01:32:47;;;;;;;8.50;6.47;;;;;;;;;;6191557;28;20185;-81
2023/06/26 01:35:49;;;;;;;;;;;;;;;;;;6190381;28;20060;-81
2023/06/26 01:38:51;;;;;;;8.48;6.30;;;;;;;;;;6206334;28;19922;-82
2023/06/26 01:41:53;;;;;;;9.68;6.57;;;;;;;;;;6192379;28;20696;-81
2023/06/26 01:44:55;;;;;;;9.07;6.97;;;;;;;;;;6207403;28;20108;-82
2023/06/26 01:48:00;;;;;;;9.20;6.68;;;;;;;;;;6185737;28;20507;-82
2023/06/26 01:51:03;;;;;;;8.57;6.68;;;;;;;;;;6195599;28;20110;-81
2023/06/26 01:54:08;;;;;;;7.97;6.45;;;;;;;;;;6206678;28;20060;-82
2023/06/26 01:57:11;;;;;;;9.57;6.47;;;;;;;;;;6174878;28;20076;-81
2023/06/26 02:00:19;;;;;;;9.57;6.85;;;;;;;;;;6190703;28;20049;-82
2023/06/26 02:03:24;;;;;;;9.60;6.60;;;;;;;;;;6204641;28;20042;-80
2023/06/26 02:06:26;;;;;;;8.70;6.93;;;;;;;;;;6217869;28;20042;-82
2023/06/26 02:09:27;;;;;;;9.02;7.00;;;;;;;;;;6202033;28;20104;-81
2023/06/26 02:12:30;;;;;;;9.88;6.75;;;;;;;;;;6207703;28;20037;-81
2023/06/26 02:15:32;;;;;;;10.40;6.90;;;;;;;;;;6187362;28;20599;-81
2023/06/26 02:18:34;;;;;;;8.80;6.60;;;;;;;;;;6207669;28;20056;-81
2023/06/26 02:21:36;;;;;;;8.15;6.78;;;;;;;;;;6187861;28;20046;-80
2023/06/26 02:24:37;;;;;;;10.35;7.20;;;;;;;;;;6187637;28;20038;-82
2023/06/26 02:27:39;;;;;;;9.13;6.90;;;;;;;;;;6190431;28;20104;-81
2023/06/26 02:30:41;;;;;;;9.27;6.70;;;;;;;;;;6188797;28;20041;-82
2023/06/26 02:33:45;;;;;;;9.45;6.88;;;;;;;;;;6174029;28;20072;-81
2023/06/26 02:36:47;;;;;;;8.80;6.40;;;;;;;;;;6205885;28;20125;-81
2023/06/26 02:39:49;;;;;;;10.00;6.63;;;;;;;;;;6201045;28;20400;-81
2023/06/26 02:42:51;;;;;;;8.70;6.97;;;;;;;;;;6217503;28;20057;-80
2023/06/26 02:45:54;;;;;;;8.13;6.97;;;;;;;;;;6198464;28;20057;-81
2023/06/26 02:48:55;;;;;;;9.90;7.43;;;;;;;;;;6191462;28;20108;-81
2023/06/26 02:51:57;;;;;;;8.00;6.20;;;;;;;;;;6194701;28;20038;-81
2023/06/26 02:55:03;;;;;;;6.97;5.82;;;;;;;;;;6194109;28;20524;-81
2023/06/26 02:58:05;;;;;;;9.70;6.78;;;;;;;;;;6174113;28;20050;-82
2023/06/26 03:01:08;;;;;;;10.55;7.40;;;;;;;;;;6187618;28;20046;-81
2023/06/26 03:04:10;;;;;;;9.38;6.63;;;;;;;;;;6192530;28;20053;-80
2023/06/26 03:07:12;;;;;;;8.32;6.45;;;;;;;;;;6201366;28;20034;-81
2023/06/26 03:10:15;;;;;;;9.80;6.95;;;;;;;;;;6186281;28;20064;-80
2023/06/26 03:13:18;;;;;;;8.95;7.28;;;;;;;;;;6183985;28;20046;-80
2023/06/26 03:16:20;;;;;;;10.52;7.22;;;;;;;;;;6176255;28;20042;-80
2023/06/26 03:19:22;;;;;;;11.00;8.23;;;;;;;;;;6168680;28;20148;-80
2023/06/26 03:22:43;;;;;;;9.10;6.88;;;;;;;;;;6194007;28;20047;-80
2023/06/26 03:25:46;;;;;;;10.65;7.20;;;;;;;;;;6181307;28;20048;-81
2023/06/26 03:28:57;;;;;;;9.63;7.60;;;;;;;;;;6170500;28;20042;-80
2023/06/26 03:31:58;;;;;;;9.50;7.22;;;;;;;;;;6199568;28;20050;-80
2023/06/26 03:35:03;;;;;;;11.90;7.28;;;;;;;;;;6178876;28;20173;-80
2023/06/26 03:38:08;;;;;;;10.98;7.20;;;;;;;;;;6172023;28;20145;-80
2023/06/26 03:41:10;;;;;;;9.70;7.03;;;;;;;;;;6186104;28;20053;-80
2023/06/26 03:44:13;;;;;;;9.40;7.10;;;;;;;;;;6177891;28;20126;-81
2023/06/26 03:47:19;;;;;;;10.38;7.10;;;;;;;;;;6191048;28;20586;-81
2023/06/26 03:50:21;;;;;;;8.85;6.97;;;;;;;;;;6193666;28;20060;-80
2023/06/26 03:53:24;;;;;;;9.52;7.32;;;;;;;;;;6187878;28;20049;-80
2023/06/26 03:56:26;;;;;;;9.35;7.10;;;;;;;;;;6187036;28;20071;-80
2023/06/26 03:59:28;;;;;;;9.02;7.20;;;;;;;;;;6184688;28;20077;-80
2023/06/26 04:02:29;;;;;;;12.85;7.95;;;;;;;;;;6188680;28;20049;-80
2023/06/26 04:05:31;;;;;;;10.75;7.80;;;;;;;;;;6189303;28;20055;-80
2023/06/26 04:08:33;;;;;;;9.70;7.35;;;;;;;;;;6206394;28;22048;-81
2023/06/26 04:11:35;;;;;;;10.15;7.70;;;;;;;;;;6208831;28;20060;-80
2023/06/26 04:14:37;;;;;;;11.68;7.93;;;;;;;;;;6201125;28;20046;-80
2023/06/26 04:17:39;;;;;;;10.93;7.75;;;;;;;;;;6200929;28;20096;-80
2023/06/26 04:21:07;;;;;;;10.00;7.65;;;;;;;;;;6191687;28;20142;-80
2023/06/26 04:24:09;;;;;;;10.88;7.88;;;;;;;;;;6181812;28;20039;-80
2023/06/26 04:27:13;;;;;;;;;;;;;;;;;;6208992;28;20474;-80
2023/06/26 04:30:15;;;;;;;10.32;8.05;;;;;;;;;;6201064;28;19925;-80
2023/06/26 04:33:17;;;;;;;10.60;7.88;;;;;;;;;;6200812;28;20053;-81
2023/06/26 04:36:19;;;;;;;14.52;9.05;;;;;;;;;;6201446;28;20050;-81
2023/06/26 04:39:20;;;;;;;10.25;8.52;;;;;;;;;;6189317;28;20137;-81
2023/06/26 04:42:22;;;;;;;10.80;8.75;;;;;;;;;;6202957;28;20045;-81
2023/06/26 04:45:24;;;;;;;10.57;8.02;;;;;;;;;;6186283;28;20065;-80
2023/06/26 04:48:27;;;;;;;11.98;8.20;;;;;;;;;;6184135;28;20468;-81
2023/06/26 04:51:29;;;;;;;;;;;;;;;;;;6189592;28;20133;-81
2023/06/26 04:54:30;;;;;;;11.73;7.80;;;;;;;;;;6189056;28;20007;-81
2023/06/26 04:57:32;;;;;;;12.63;8.20;;;;;;;;;;6186542;28;20161;-81
2023/06/26 05:00:35;;;;;;;9.40;7.80;;;;;;;;;;6200370;28;21279;-81
2023/06/26 05:03:38;;;;;;;11.63;7.80;;;;;;;;;;6203529;28;20050;-81
2023/06/26 05:06:39;;;;;;;10.85;7.45;;;;;;;;;;6192322;28;20061;-81
2023/06/26 05:09:41;;;;;;;10.15;7.72;;;;;;;;;;6187723;28;20160;-81
2023/06/26 05:12:43;;;;;;;12.93;8.55;;;;;;;;;;6209317;28;20140;-81
2023/06/26 05:15:45;;;;;;;12.85;8.20;;;;;;;;;;6212200;28;20517;-81
2023/06/26 05:18:47;;;;;;;10.98;8.63;;;;;;;;;;6197924;28;20054;-81
2023/06/26 05:21:50;;;;;;;12.02;8.77;;;;;;;;;;6214660;28;20049;-81
2023/06/26 05:24:55;;;;;;;11.52;8.13;;;;;;;;;;6194194;28;20042;-81
2023/06/26 05:27:57;;;;;;;10.00;8.15;;;;;;;;;;6196525;28;20042;-81
2023/06/26 05:30:59;;;;;;;9.75;7.75;;;;;;;;;;6188985;28;20042;-81
2023/06/26 05:34:03;;;;;;;11.60;7.97;;;;;;;;;;6204159;28;20046;-81
2023/06/26 05:37:06;;;;;;;10.70;7.55;;;;;;;;;;6199046;28;20066;-79
2023/06/26 05:40:09;;;;;;;11.57;7.78;;;;;;;;;;6211240;28;20404;-81
2023/06/26 05:43:11;;;;;;;10.27;7.73;;;;;;;;;;6201843;28;20512;-80
2023/06/26 05:46:13;;;;;;;10.30;7.65;;;;;;;;;;6199310;28;20452;-81
2023/06/26 05:49:15;;;;;;;12.43;7.45;;;;;;;;;;6210326;28;20042;-81
2023/06/26 05:52:17;;;;;;;9.43;7.50;;;;;;;;;;6217452;28;20069;-82
2023/06/26 05:55:19;;;;;;;10.70;8.03;;;;;;;;;;6209150;28;20066;-81
2023/06/26 05:58:22;;;;;;;11.43;7.57;;;;;;;;;;6211964;28;20054;-81
2023/06/26 06:01:24;;;;;;;11.98;8.07;;;;;;;;;;6210785;28;20049;-81
2023/06/26 06:04:26;;;;;;;9.17;7.60;;;;;;;;;;6215185;28;20046;-81
2023/06/26 06:07:28;;;;;;;13.18;7.97;;;;;;;;;;6195034;28;20042;-81
2023/06/26 06:10:30;;;;;;;9.05;7.07;;;;;;;;;;6195782;28;20559;-81
2023/06/26 06:13:32;;;;;;;11.43;7.18;;;;;;;;;;6197541;28;20062;-82
2023/06/26 06:16:33;;;;;;;10.43;8.00;;;;;;;;;;6211662;28;20112;-81
2023/06/26 06:19:35;;;;;;;11.10;7.40;;;;;;;;;;6199936;28;20054;-81
2023/06/26 06:22:36;;;;;;;11.75;7.60;;;;;;;;;;6214527;28;20061;-80
2023/06/26 06:25:38;;;;;;;10.18;7.15;;;;;;;;;;6211036;28;20570;-82
2023/06/26 06:28:40;;;;;;;15.15;8.48;;;;;;;;;;6204084;28;20092;-80
2023/06/26 06:31:41;;;;;;;15.85;8.25;;;;;;;;;;6174433;28;20045;-80
2023/06/26 06:34:43;;;;;;;17.60;8.05;;;;;;;;;;6207947;28;20046;-81
2023/06/26 06:37:45;;;;;;;23.98;8.88;;;;;;;;;;6194119;28;20046;-82
2023/06/26 06:40:46;;;;;;;32.55;8.82;;;;;;;;;;6207100;28;20093;-81
2023/06/26 06:43:48;;;;;;;36.08;9.52;;;;;;;;;;6205275;28;20038;-82
2023/06/26 06:46:50;;;;;;;27.77;9.57;;;;;;;;;;6204387;28;20033;-81
2023/06/26 06:49:51;;;;;;;29.08;9.38;;;;;;;;;;6192814;28;20593;-81
2023/06/26 06:52:53;;;;;;;25.45;8.82;;;;;;;;;;6191428;28;20053;-81
2023/06/26 06:55:55;;;;;;;23.08;7.47;;;;;;;;;;6202203;28;20094;-81
2023/06/26 06:58:56;;;;;;;21.98;7.63;;;;;;;;;;6203600;28;20058;-82
2023/06/26 07:01:58;;;;;;;19.38;7.43;;;;;;;;;;6193608;28;20616;-81
2023/06/26 07:05:00;;;;;;;17.08;7.75;;;;;;;;;;6204564;28;20033;-79
2023/06/26 07:08:03;;;;;;;13.63;7.10;;;;;;;;;;6205883;28;20057;-83
2023/06/26 07:11:04;;;;;;;11.85;7.05;;;;;;;;;;6184641;28;20061;-81
2023/06/26 07:14:06;;;;;;;8.85;6.45;;;;;;;;;;6184246;28;20046;-80
2023/06/26 07:17:08;;;;;;;8.45;6.50;;;;;;;;;;6184761;28;20054;-81
2023/06/26 07:20:15;;;;;;;8.27;6.10;;;;;;;;;;6200812;28;20154;-80
2023/06/26 07:23:16;;;;;;;8.60;6.00;;;;;;;;;;6193335;28;20442;-81
2023/06/26 07:26:18;;;;;;;7.07;6.13;;;;;;;;;;6207038;28;20057;-81
2023/06/26 07:29:33;;;;;;;12.63;6.35;;;;;;;;;;6188232;28;20449;-82
2023/06/26 07:32:35;;;;;;;10.75;6.03;;;;;;;;;;6203857;28;20042;-81
2023/06/26 07:35:37;;;;;;;8.70;5.97;;;;;;;;;;6207996;28;20057;-82
2023/06/26 07:38:39;;;;;;;11.02;6.25;;;;;;;;;;6187227;28;20073;-82
2023/06/26 07:41:41;;;;;;;9.77;5.72;;;;;;;;;;6202973;28;20057;-81
2023/06/26 07:44:43;;;;;;;7.90;5.75;;;;;;;;;;6200903;28;20136;-81
2023/06/26 07:47:45;;;;;;;10.82;6.75;;;;;;;;;;6186918;28;20606;-81
2023/06/26 07:50:47;;;;;;;6.60;5.30;;;;;;;;;;6192730;28;20057;-81
2023/06/26 07:53:48;;;;;;;7.83;5.57;;;;;;;;;;6186745;28;20049;-83
2023/06/26 07:56:54;;;;;;;7.30;5.95;;;;;;;;;;6182217;28;20042;-82
2023/06/26 07:59:56;;;;;;;8.23;5.40;;;;;;;;;;6184648;28;20416;-83
2023/06/26 08:02:58;;;;;;;7.18;6.10;;;;;;;;;;6206356;28;20046;-82
2023/06/26 08:06:00;;;;;;;6.47;5.65;;;;;;;;;;6211222;28;20428;-81
2023/06/26 08:09:04;;;;;;;6.63;5.20;;;;;;;;;;6208571;28;20062;-82
2023/06/26 08:12:06;;;;;;;7.50;5.80;;;;;;;;;;6207909;28;20481;-81
2023/06/26 08:15:11;;;;;;;9.30;5.93;;;;;;;;;;6206807;28;20052;-82
2023/06/26 08:18:13;;;;;;;8.63;5.90;;;;;;;;;;6187438;28;20073;-81
2023/06/26 08:21:14;;;;;;;8.35;5.90;;;;;;;;;;6193542;28;20050;-82
2023/06/26 08:24:18;;;;;;;10.27;5.87;;;;;;;;;;6202225;28;20057;-83
2023/06/26 08:27:20;;;;;;;10.43;6.10;;;;;;;;;;6202362;28;20046;-81
2023/06/26 08:30:22;;;;;;;10.18;6.45;;;;;;;;;;6198501;28;20415;-76
2023/06/26 08:33:23;;;;;;;9.55;5.93;;;;;;;;;;6167587;28;20045;-81
2023/06/26 08:36:25;;;;;;;7.28;5.88;;;;;;;;;;6189644;28;20051;-80
2023/06/26 08:39:28;;;;;;;12.87;6.80;;;;;;;;;;6190145;28;20544;-81
2023/06/26 08:42:29;;;;;;;8.73;6.10;;;;;;;;;;6186931;28;20046;-81
2023/06/26 08:45:31;;;;;;;8.30;6.03;;;;;;;;;;6182746;28;20046;-79
2023/06/26 08:48:36;;;;;;;8.00;5.85;;;;;;;;;;6187223;28;20089;-81
2023/06/26 08:51:39;;;;;;;12.05;5.90;;;;;;;;;;6186898;28;20427;-80
2023/06/26 08:54:53;;;;;;;6.85;6.15;;;;;;;;;;6203836;28;20046;-82
2023/06/26 08:57:55;;;;;;;9.82;6.03;;;;;;;;;;6188394;28;20042;-82
2023/06/26 09:00:57;;;;;;;7.55;5.85;;;;;;;;;;6201291;28;20056;-81
2023/06/26 09:03:59;;;;;;;8.07;5.50;;;;;;;;;;6189997;28;20045;-81
2023/06/26 09:07:01;;;;;;;7.95;5.70;;;;;;;;;;6187925;28;20054;-82
2023/06/26 09:10:04;;;;;;;6.10;5.22;;;;;;;;;;6203716;28;20049;-81
2023/06/26 09:13:06;;;;;;;7.68;5.55;;;;;;;;;;6201861;28;20034;-81
2023/06/26 09:16:18;;;;;;;8.93;5.28;;;;;;;;;;6194815;28;20042;-83
2023/06/26 09:19:20;;;;;;;10.25;6.00;;;;;;;;;;6192641;28;20049;-82
2023/06/26 09:22:23;;;;;;;9.35;5.75;;;;;;;;;;6202437;28;20050;-82
2023/06/26 09:25:25;;;;;;;11.25;5.78;;;;;;;;;;6186799;28;20057;-82
2023/06/26 09:28:26;;;;;;;7.95;5.68;;;;;;;;;;6199002;28;20048;-81
2023/06/26 09:31:28;;;;;;;7.53;5.77;;;;;;;;;;6194303;28;20061;-79
2023/06/26 09:34:44;;;;;;;7.40;6.00;;;;;;;;;;6186358;28;20133;-80
2023/06/26 09:37:46;;;;;;;9.30;6.25;;;;;;;;;;6187491;28;20053;-80
2023/06/26 09:40:47;;;;;;;7.13;5.83;;;;;;;;;;6185032;28;20428;-80
2023/06/26 09:43:50;;;;;;;9.03;5.60;;;;;;;;;;6194210;28;20583;-79
2023/06/26 09:46:55;;;;;;;7.25;5.82;;;;;;;;;;6198335;28;20049;-79
2023/06/26 09:49:56;;;;;;;8.30;6.10;;;;;;;;;;6192950;28;20049;-79
2023/06/26 09:52:58;;;;;;;7.63;6.22;;;;;;;;;;6201724;28;20444;-80
2023/06/26 09:56:14;;;;;;;8.23;5.53;;;;;;;;;;6185642;28;20576;-80
2023/06/26 09:59:16;;;;;;;6.88;5.35;;;;;;;;;;6204495;28;20627;-82
2023/06/26 10:02:18;;;;;;;5.72;4.22;;;;;;;;;;6200907;28;20046;-80
2023/06/26 10:05:20;;;;;;;5.30;4.10;;;;;;;;;;6193714;28;20045;-80
2023/06/26 10:08:22;;;;;;;7.30;4.13;;;;;;;;;;6202313;28;20069;-81
2023/06/26 10:11:30;;;;;;;6.40;3.92;;;;;;;;;;6204306;28;20041;-79
2023/06/26 10:14:37;;;;;;;6.72;4.00;;;;;;;;;;6189582;28;20050;-79
2023/06/26 10:17:42;;;;;;;6.60;4.63;;;;;;;;;;6167962;28;20057;-79
2023/06/26 10:20:48;;;;;;;6.72;4.72;;;;;;;;;;6208967;28;20159;-78
2023/06/26 10:23:51;;;;;;;6.45;4.50;;;;;;;;;;6187205;28;20789;-79
2023/06/26 10:27:01;;;;;;;8.05;4.30;;;;;;;;;;6204117;28;20048;-81
2023/06/26 10:30:09;;;;;;;7.75;5.03;;;;;;;;;;6198746;28;20440;-81
2023/06/26 10:33:12;;;;;;;7.82;3.95;;;;;;;;;;6202146;28;20065;-82
2023/06/26 10:36:18;;;;;;;6.95;4.40;;;;;;;;;;6184578;28;20432;-82
2023/06/26 10:39:19;;;;;;;7.22;4.57;;;;;;;;;;6182937;28;20100;-80
2023/06/26 10:42:42;;;;;;;6.95;4.45;;;;;;;;;;6202031;28;20050;-81
2023/06/26 10:45:53;;;;;;;7.30;4.53;;;;;;;;;;6180546;28;20050;-79
2023/06/26 10:49:01;;;;;;;7.85;4.88;;;;;;;;;;6209720;28;20057;-82
2023/06/26 10:52:03;;;;;;;6.95;4.25;;;;;;;;;;6205159;28;20105;-79
2023/06/26 10:55:08;;;;;;;7.68;4.78;;;;;;;;;;6203135;28;20050;-80
2023/06/26 10:58:32;;;;;;;6.85;4.80;;;;;;;;;;6203090;28;20072;-81
2023/06/26 11:01:40;;;;;;;6.50;5.30;;;;;;;;;;6204655;28;20125;-81
2023/06/26 11:04:46;;;;;;;7.75;6.15;;;;;;;;;;6206405;28;20459;-81
2023/06/26 11:08:08;;;;;;;7.53;5.97;;;;;;;;;;6190251;28;20041;-80
2023/06/26 11:11:10;;;;;;;7.38;6.40;;;;;;;;;;6186193;28;20064;-78
2023/06/26 11:14:12;;;;;;;7.25;5.72;;;;;;;;;;6205926;28;20447;-81
2023/06/26 11:17:16;;;;;;;8.73;6.13;;;;;;;;;;6199103;28;20054;-82
2023/06/26 11:20:17;;;;;;;7.10;5.97;;;;;;;;;;6192148;28;20793;-81
2023/06/26 11:23:24;;;;;;;8.50;6.28;;;;;;;;;;6189425;28;20041;-79
2023/06/26 11:26:26;;;;;;;9.88;6.63;;;;;;;;;;6191161;28;20054;-81
2023/06/26 11:29:27;;;;;;;7.93;6.40;;;;;;;;;;6202399;28;20097;-81
2023/06/26 11:32:29;;;;;;;9.07;6.78;;;;;;;;;;6201163;28;20053;-82
2023/06/26 11:35:31;;;;;;;12.37;6.97;;;;;;;;;;6205843;28;20041;-80
2023/06/26 11:38:38;;;;;;;7.88;6.60;;;;;;;;;;6207661;28;20529;-81
2023/06/26 11:41:41;;;;;;;9.00;7.05;;;;;;;;;;6205253;28;20125;-81
2023/06/26 11:44:43;;;;;;;5.63;4.85;;;;;;;;;;6193712;28;20050;-81
2023/06/26 11:47:45;;;;;;;6.28;5.22;;;;;;;;;;6207174;28;20068;-83
2023/06/26 11:50:51;;;;;;;9.65;5.25;;;;;;;;;;6189326;28;20052;-82
2023/06/26 11:53:53;;;;;;;8.00;5.25;;;;;;;;;;6200033;28;20049;-81
2023/06/26 11:56:59;;;;;;;9.80;4.88;;;;;;;;;;6201885;28;20080;-81
2023/06/26 12:00:11;;;;;;;6.80;4.90;;;;;;;;;;6202982;28;20038;-82
2023/06/26 12:03:12;;;;;;;7.78;5.20;;;;;;;;;;6202798;28;20068;-80
2023/06/26 12:06:15;;;;;;;6.57;5.03;;;;;;;;;;6187883;28;20058;-82
2023/06/26 12:09:19;;;;;;;7.32;5.28;;;;;;;;;;6198279;28;20525;-80
2023/06/26 12:12:21;;;;;;;7.15;4.63;;;;;;;;;;6188083;28;20104;-78
2023/06/26 12:15:23;;;;;;;5.88;4.47;;;;;;;;;;6179802;28;20042;-80
2023/06/26 12:18:26;;;;;;;7.25;4.15;;;;;;;;;;6208908;28;20054;-78
2023/06/26 12:21:46;;;;;;;7.30;4.05;;;;;;;;;;6205229;28;20500;-82
2023/06/26 12:24:48;;;;;;;4.40;4.00;;;;;;;;;;6198568;28;20058;-79
2023/06/26 12:27:50;;;;;;;4.78;3.33;;;;;;;;;;6180767;28;20046;-77
2023/06/26 12:31:16;;;;;;;5.95;3.90;;;;;;;;;;6191117;28;20505;-77
2023/06/26 12:34:21;;;;;;;5.38;3.42;;;;;;;;;;6203120;28;20077;-78
2023/06/26 12:37:22;;;;;;;5.55;3.20;;;;;;;;;;6181036;28;20034;-80
2023/06/26 12:40:24;;;;;;;4.80;3.20;;;;;;;;;;6195176;28;20046;-79
2023/06/26 12:43:26;;;;;;;4.60;3.20;;;;;;;;;;6204927;28;20116;-78
2023/06/26 12:46:37;;;;;;;6.47;3.25;;;;;;;;;;6197733;28;20131;-79
2023/06/26 12:49:44;;;;;;;5.32;3.03;;;;;;;;;;6206264;28;20049;-77
2023/06/26 12:52:46;;;;;;;4.88;2.95;;;;;;;;;;6202747;28;20038;-79
2023/06/26 12:55:48;;;;;;;5.75;2.75;;;;;;;;;;6186866;28;20069;-79
2023/06/26 12:58:49;;;;;;;8.93;3.08;;;;;;;;;;6185479;28;20053;-77
2023/06/26 13:01:51;;;;;;;4.60;2.85;;;;;;;;;;6200536;28;20079;-79
2023/06/26 13:04:53;;;;;;;4.65;2.72;;;;;;;;;;6203653;28;20125;-79
2023/06/26 13:07:55;;;;;;;4.95;3.00;;;;;;;;;;6173752;28;20053;-82
2023/06/26 13:10:57;;;;;;;3.85;2.75;;;;;;;;;;6198751;28;20281;-76
2023/06/26 13:13:59;;;;;;;5.57;2.95;;;;;;;;;;6200144;28;20530;-76
2023/06/26 13:17:12;;;;;;;5.07;3.00;;;;;;;;;;6177207;28;20185;-76
2023/06/26 13:20:13;;;;;;;3.58;3.00;;;;;;;;;;6183001;28;20046;-77
2023/06/26 13:23:16;;;;;;;4.60;2.97;;;;;;;;;;6179947;28;20530;-78
2023/06/26 13:26:19;;;;;;;8.02;3.28;;;;;;;;;;6192706;28;20041;-77
2023/06/26 13:29:36;;;;;;;9.27;5.07;;;;;;;;;;6175346;28;20051;-76
2023/06/26 13:32:38;;;;;;;45.40;26.48;;;;;;;;;;6168023;28;20120;-75
2023/06/26 13:35:40;;;;;;;33.28;29.75;;;;;;;;;;6191301;28;20157;-76
2023/06/26 13:38:42;;;;;;;12.07;6.63;;;;;;;;;;6185561;28;20535;-76
2023/06/26 13:41:45;;;;;;;4.63;3.13;;;;;;;;;;6186664;28;20267;-76
2023/06/26 13:44:46;;;;;;;23.73;13.40;;;;;;;;;;6194786;28;20049;-79
2023/06/26 13:48:03;;;;;;;5.78;3.42;;;;;;;;;;6185595;28;20054;-75
2023/06/26 13:51:05;;;;;;;3.78;2.33;;;;;;;;;;6200949;28;20054;-76
2023/06/26 13:54:08;;;;;;;7.53;2.70;;;;;;;;;;6200028;28;20102;-78
2023/06/26 13:57:10;;;;;;;3.35;2.60;;;;;;;;;;6187701;28;20050;-76
2023/06/26 14:00:12;;;;;;;4.57;2.35;;;;;;;;;;6197831;28;20042;-76
2023/06/26 14:03:14;;;;;;;5.65;2.30;;;;;;;;;;6202528;28;20037;-76
2023/06/26 14:06:16;;;;;;;6.40;2.50;;;;;;;;;;6201485;28;20042;-76
2023/06/26 14:09:18;;;;;;;4.28;2.35;;;;;;;;;;6196679;28;20049;-76
2023/06/26 14:12:19;;;;;;;3.72;2.40;;;;;;;;;;6202785;28;20133;-75
2023/06/26 14:15:21;;;;;;;5.80;2.38;;;;;;;;;;6176015;28;20713;-77
2023/06/26 14:18:23;;;;;;;4.00;2.35;;;;;;;;;;6202099;28;20134;-76
2023/06/26 14:21:27;;;;;;;3.20;2.13;;;;;;;;;;6177815;28;20420;-77
2023/06/26 14:24:29;;;;;;;6.32;2.20;;;;;;;;;;6195677;28;20052;-77
2023/06/26 14:27:31;;;;;;;3.17;2.13;;;;;;;;;;6195281;28;20046;-77
2023/06/26 14:30:32;;;;;;;4.47;2.60;;;;;;;;;;6162863;28;20053;-76
2023/06/26 14:33:34;;;;;;;3.28;2.25;;;;;;;;;;6204963;28;20985;-76
2023/06/26 14:36:37;;;;;;;4.25;2.38;;;;;;;;;;6198884;28;20520;-76
2023/06/26 14:39:39;;;;;;;5.90;2.90;;;;;;;;;;6195669;28;20045;-76
2023/06/26 14:42:42;;;;;;;4.38;2.40;;;;;;;;;;6197377;28;20046;-76
2023/06/26 14:45:45;;;;;;;3.90;2.25;;;;;;;;;;6199484;28;20053;-76
2023/06/26 14:48:48;;;;;;;6.22;2.65;;;;;;;;;;6184205;28;20514;-77
2023/06/26 14:51:49;;;;;;;2.38;2.10;;;;;;;;;;6197831;28;20113;-78
2023/06/26 14:54:51;;;;;;;4.82;2.30;;;;;;;;;;6184814;28;20088;-77
2023/06/26 14:57:53;;;;;;;4.80;2.60;;;;;;;;;;6182011;28;20053;-76
2023/06/26 15:00:54;;;;;;;3.70;2.30;;;;;;;;;;6200514;28;20488;-75
2023/06/26 15:03:56;;;;;;;6.07;2.38;;;;;;;;;;6201235;28;20943;-76
2023/06/26 15:06:58;;;;;;;3.63;2.45;;;;;;;;;;6203891;28;20412;-76
2023/06/26 15:09:59;;;;;;;5.53;2.30;;;;;;;;;;6197290;28;20046;-77
2023/06/26 15:13:01;;;;;;;5.00;2.43;;;;;;;;;;6170047;28;20077;-76
2023/06/26 15:16:03;;;;;;;3.60;1.90;;;;;;;;;;6197883;28;20558;-75
2023/06/26 15:19:04;;;;;;;4.93;2.22;;;;;;;;;;6202815;28;20057;-76
2023/06/26 15:22:06;;;;;;;5.22;2.15;;;;;;;;;;6199062;28;20555;-76
2023/06/26 15:25:08;;;;;;;5.65;2.65;;;;;;;;;;6198248;28;20049;-74
2023/06/26 15:28:10;;;;;;;3.15;2.10;;;;;;;;;;6198173;28;20121;-76
2023/06/26 15:31:12;;;;;;;3.67;2.03;;;;;;;;;;6193676;28;20049;-76
2023/06/26 15:34:14;;;;;;;4.53;2.38;;;;;;;;;;6177937;28;20046;-75
2023/06/26 15:37:16;;;;;;;3.47;2.08;;;;;;;;;;6200880;28;20492;-76
2023/06/26 15:40:18;;;;;;;3.43;2.30;;;;;;;;;;6180297;28;20135;-74
2023/06/26 15:43:20;;;;;;;3.75;2.13;;;;;;;;;;6203275;28;20046;-76
2023/06/26 15:46:21;;;;;;;5.15;2.20;;;;;;;;;;6199970;28;20104;-76
2023/06/26 15:49:23;;;;;;;6.47;2.05;;;;;;;;;;6200397;28;20045;-76
2023/06/26 15:52:25;;;;;;;4.13;1.93;;;;;;;;;;6198720;28;20128;-78
2023/06/26 15:55:26;;;;;;;5.27;1.73;;;;;;;;;;6199745;28;20042;-78
2023/06/26 15:58:28;;;;;;;4.07;1.80;;;;;;;;;;6197535;28;20042;-77
2023/06/26 16:01:29;;;;;;;4.93;1.83;;;;;;;;;;6203306;28;20045;-83
2023/06/26 16:04:32;;;;;;;7.03;2.08;;;;;;;;;;6188245;28;20445;-78
2023/06/26 16:07:34;;;;;;;5.70;1.63;;;;;;;;;;6204998;28;20088;-81
2023/06/26 16:10:56;;;;;;;4.32;1.77;;;;;;;;;;6206830;28;20057;-82
2023/06/26 16:13:58;;;;;;;5.18;1.55;;;;;;;;;;6202573;28;20135;-80
2023/06/26 16:17:00;;;;;;;4.47;1.60;;;;;;;;;;6201773;28;20934;-78
2023/06/26 16:20:02;;;;;;;4.70;1.65;;;;;;;;;;6186278;28;20141;-83
2023/06/26 16:23:04;;;;;;;5.07;1.30;;;;;;;;;;6191929;28;20424;-81
2023/06/26 16:26:05;;;;;;;5.77;1.37;;;;;;;;;;6195975;28;20084;-77
2023/06/26 16:29:07;;;;;;;4.53;1.40;;;;;;;;;;6195146;28;20120;-77
2023/06/26 16:32:10;;;;;;;2.92;1.63;;;;;;;;;;6203686;28;21183;-81
2023/06/26 16:35:12;;;;;;;3.07;1.50;;;;;;;;;;6204766;28;20053;-83
2023/06/26 16:38:14;;;;;;;3.00;1.30;;;;;;;;;;6185927;28;20041;-84
2023/06/26 16:41:15;;;;;;;4.53;1.40;;;;;;;;;;6193063;28;20054;-81
2023/06/26 16:44:17;;;;;;;5.10;1.20;;;;;;;;;;6203898;28;20512;-81
2023/06/26 16:47:19;;;;;;;4.32;1.60;;;;;;;;;;6196691;28;20050;-81
2023/06/26 16:50:21;;;;;;;;;;;;;;;;;;6200066;28;20053;-81
2023/06/26 16:53:23;;;;;;;1.73;1.30;;;;;;;;;;6199367;28;19932;-82
2023/06/26 16:56:25;;;;;;;;;;;;;;;;;;6182305;28;20064;-82
2023/06/26 16:59:27;;;;;;;6.38;1.55;;;;;;;;;;6197095;28;20016;-83
2023/06/26 17:02:30;;;;;;;4.50;1.40;;;;;;;;;;6183115;28;20234;-82
2023/06/26 17:05:32;;;;;;;3.90;1.33;;;;;;;;;;6204283;28;20038;-82
2023/06/26 17:08:36;;;;;;;4.30;1.27;;;;;;;;;;6204965;28;20046;-80
2023/06/26 17:11:41;;;;;;;3.22;0.95;;;;;;;;;;6196970;28;20105;-80
2023/06/26 17:14:42;;;;;;;5.35;1.45;;;;;;;;;;6191367;28;20096;-82
2023/06/26 17:17:44;;;;;;;4.00;1.20;;;;;;;;;;6201741;28;20073;-81
2023/06/26 17:20:46;;;;;;;4.00;1.23;;;;;;;;;;6179555;28;20053;-80
2023/06/26 17:23:48;;;;;;;3.17;1.20;;;;;;;;;;6187977;28;20092;-80
2023/06/26 17:26:49;;;;;;;2.10;1.02;;;;;;;;;;6198627;28;20062;-78
2023/06/26 17:29:51;;;;;;;4.05;1.25;;;;;;;;;;6196815;28;20104;-79
2023/06/26 17:32:54;;;;;;;3.70;1.00;;;;;;;;;;6196324;28;20077;-80
2023/06/26 17:35:56;;;;;;;2.60;1.05;;;;;;;;;;6182518;28;20053;-76
2023/06/26 17:39:00;;;;;;;4.73;1.50;;;;;;;;;;6193561;28;20049;-77
2023/06/26 17:42:03;;;;;;;3.20;1.15;;;;;;;;;;6198587;28;20135;-76
2023/06/26 17:45:06;;;;;;;3.35;1.50;;;;;;;;;;6179259;28;20405;-74
2023/06/26 17:48:08;;;;;;;2.95;1.25;;;;;;;;;;6180226;28;20534;-75
2023/06/26 17:51:10;;;;;;;3.97;1.45;;;;;;;;;;6197102;28;20050;-79
2023/06/26 17:54:12;;;;;;;2.22;1.38;;;;;;;;;;6183589;28;20053;-81
2023/06/26 17:57:16;;;;;;;6.70;1.20;;;;;;;;;;6194035;28;20058;-80
2023/06/26 18:00:18;;;;;;;3.13;1.40;;;;;;;;;;6204538;28;20053;-80
2023/06/26 18:03:19;;;;;;;2.17;1.17;;;;;;;;;;6208722;28;20049;-80
2023/06/26 18:06:23;;;;;;;3.70;1.23;;;;;;;;;;6187835;28;20052;-80
2023/06/26 18:09:25;;;;;;;4.75;1.17;;;;;;;;;;6187782;28;20045;-80
2023/06/26 18:12:26;;;;;;;2.92;1.27;;;;;;;;;;6197024;28;20042;-80
2023/06/26 18:15:32;;;;;;;2.65;1.00;;;;;;;;;;6197157;28;20081;-80